createdAt,value
2018-03-06T00:00:21.839Z,23.70
2018-03-06T00:02:50.291Z,12.20
2018-03-06T00:05:18.560Z,23.23
2018-03-06T00:07:49.908Z,14.33
2018-03-06T00:10:18.544Z,22.47
2018-03-06T00:12:46.818Z,26.80
2018-03-06T00:15:15.110Z,6.60
2018-03-06T00:17:43.439Z,17.90
2018-03-06T00:20:11.939Z,21.77
2018-03-06T00:22:40.214Z,23.67
2018-03-06T00:25:08.729Z,34.00
2018-03-06T00:27:37.001Z,23.00
2018-03-06T00:30:05.285Z,22.83
2018-03-06T00:32:34.475Z,21.90
2018-03-06T00:35:02.743Z,21.20
2018-03-06T00:37:31.033Z,33.50
2018-03-06T00:40:00.100Z,24.67
2018-03-06T00:42:28.380Z,28.23
2018-03-06T00:45:00.235Z,24.13
2018-03-06T00:47:28.575Z,24.50
2018-03-06T00:49:57.644Z,20.40
2018-03-06T00:52:26.685Z,23.13
2018-03-06T00:54:54.996Z,25.97
2018-03-06T00:57:23.306Z,26.90
2018-03-06T00:59:52.350Z,35.07
2018-03-06T01:02:20.679Z,24.97
2018-03-06T01:04:49.708Z,14.20
2018-03-06T01:07:17.974Z,11.97
2018-03-06T01:09:48.026Z,16.67
2018-03-06T01:12:16.318Z,20.43
2018-03-06T01:14:45.366Z,27.30
2018-03-06T01:17:14.025Z,24.13
2018-03-06T01:19:43.062Z,4.03
2018-03-06T01:22:12.859Z,25.50
2018-03-06T01:24:41.492Z,10.43
2018-03-06T01:27:10.549Z,27.57
2018-03-06T01:29:38.850Z,20.73
2018-03-06T01:32:07.439Z,32.60
2018-03-06T01:34:39.882Z,25.77
2018-03-06T01:37:08.420Z,20.07
2018-03-06T01:39:37.472Z,28.83
2018-03-06T01:42:05.776Z,26.77
2018-03-06T01:44:34.872Z,28.50
2018-03-06T01:47:04.942Z,37.13
2018-03-06T01:49:33.257Z,47.40
2018-03-06T01:52:01.567Z,34.97
2018-03-06T01:54:29.854Z,31.00
2018-03-06T01:56:58.131Z,24.93
2018-03-06T01:59:28.802Z,16.20
2018-03-06T02:01:57.066Z,42.23
2018-03-06T02:04:25.351Z,32.30
2018-03-06T02:06:53.874Z,29.70
2018-03-06T02:09:22.925Z,33.23
2018-03-06T02:11:51.195Z,28.80
2018-03-06T02:14:19.807Z,14.07
2018-03-06T02:16:48.107Z,7.13
2018-03-06T02:19:17.881Z,31.97
2018-03-06T02:21:46.287Z,33.37
2018-03-06T02:24:15.415Z,15.73
2018-03-06T02:26:43.708Z,17.60
2018-03-06T02:29:12.040Z,22.00
2018-03-06T02:31:40.325Z,13.23
2018-03-06T02:34:08.627Z,18.23
2018-03-06T02:36:38.725Z,16.23
2018-03-06T02:39:07.797Z,27.70
2018-03-06T02:41:36.101Z,12.40
2018-03-06T02:44:05.286Z,40.13
2018-03-06T02:46:34.354Z,27.00
2018-03-06T02:49:06.070Z,31.10
2018-03-06T02:51:34.349Z,21.43
2018-03-06T02:54:02.632Z,17.37
2018-03-06T02:56:31.044Z,30.37
2018-03-06T02:58:59.339Z,32.57
2018-03-06T03:01:30.747Z,17.47
2018-03-06T03:03:59.066Z,7.30
2018-03-06T03:06:28.859Z,19.83
2018-03-06T03:08:57.181Z,25.23
2018-03-06T03:11:26.357Z,33.73
2018-03-06T03:13:56.534Z,24.73
2018-03-06T03:16:24.812Z,11.57
2018-03-06T03:18:53.260Z,37.30
2018-03-06T03:21:21.554Z,34.20
2018-03-06T03:23:49.861Z,28.40
2018-03-06T03:26:19.782Z,3.70
2018-03-06T03:28:48.062Z,12.63
2018-03-06T03:31:16.338Z,21.67
2018-03-06T03:33:44.662Z,28.00
2018-03-06T03:36:12.936Z,16.80
2018-03-06T03:38:43.197Z,25.10
2018-03-06T03:41:11.508Z,26.13
2018-03-06T03:43:40.539Z,1.63
2018-03-06T03:46:08.810Z,7.77
2018-03-06T03:48:37.884Z,8.13
2018-03-06T03:51:09.507Z,26.20
2018-03-06T03:53:37.805Z,12.83
2018-03-06T03:56:06.889Z,3.43
2018-03-06T03:58:36.673Z,12.80
2018-03-06T04:01:04.940Z,9.60
2018-03-06T04:03:34.105Z,25.83
2018-03-06T04:06:02.355Z,3.17
2018-03-06T04:08:31.403Z,33.17
2018-03-06T04:10:59.762Z,5.83
2018-03-06T04:13:28.035Z,6.90
2018-03-06T04:15:57.797Z,30.00
2018-03-06T04:18:26.489Z,26.50
2018-03-06T04:20:56.269Z,18.70
2018-03-06T04:23:24.542Z,4.97
2018-03-06T04:25:53.377Z,30.77
2018-03-06T04:28:24.925Z,36.50
2018-03-06T04:30:53.259Z,13.03
2018-03-06T04:33:21.573Z,44.83
2018-03-06T04:35:49.870Z,43.83
2018-03-06T04:38:18.925Z,50.07
2018-03-06T04:40:47.433Z,39.87
2018-03-06T04:43:15.737Z,45.47
2018-03-06T04:45:44.791Z,50.53
2018-03-06T04:48:13.105Z,41.90
2018-03-06T04:50:42.162Z,46.67
2018-03-06T04:53:13.818Z,42.63
2018-03-06T04:55:42.138Z,27.67
2018-03-06T04:58:10.421Z,29.00
2018-03-06T05:00:38.700Z,38.60
2018-03-06T05:03:07.546Z,32.30
2018-03-06T05:05:35.904Z,22.63
2018-03-06T05:08:04.172Z,13.37
2018-03-06T05:10:32.483Z,18.93
2018-03-06T05:13:00.773Z,25.60
2018-03-06T05:15:29.822Z,24.23
2018-03-06T05:17:59.692Z,10.43
2018-03-06T05:20:28.726Z,8.30
2018-03-06T05:22:57.377Z,11.57
2018-03-06T05:25:26.449Z,14.23
2018-03-06T05:27:54.731Z,12.13
2018-03-06T05:30:25.304Z,31.53
2018-03-06T05:32:53.934Z,17.77
2018-03-06T05:35:22.201Z,20.70
2018-03-06T05:37:51.387Z,13.90
2018-03-06T05:40:20.086Z,28.63
2018-03-06T05:42:50.734Z,17.57
2018-03-06T05:45:19.775Z,20.57
2018-03-06T05:47:48.196Z,45.93
2018-03-06T05:50:17.260Z,27.07
2018-03-06T05:52:45.561Z,20.53
2018-03-06T05:55:14.563Z,27.53
2018-03-06T05:57:43.607Z,36.50
2018-03-06T06:00:11.908Z,43.03
2018-03-06T06:02:40.223Z,33.03
2018-03-06T06:05:09.310Z,40.90
2018-03-06T06:07:39.247Z,34.83
2018-03-06T06:10:07.697Z,36.47
2018-03-06T06:12:35.997Z,41.60
2018-03-06T06:15:05.048Z,35.40
2018-03-06T06:17:33.438Z,35.53
2018-03-06T06:20:01.791Z,33.37
2018-03-06T06:22:30.059Z,34.97
2018-03-06T06:24:58.590Z,19.83
2018-03-06T06:27:26.849Z,13.03
2018-03-06T06:29:55.125Z,13.67
2018-03-06T06:32:25.151Z,41.60
2018-03-06T06:34:53.436Z,38.07
2018-03-06T06:37:21.700Z,21.20
2018-03-06T06:39:50.010Z,12.67
2018-03-06T06:42:19.046Z,12.97
2018-03-06T06:44:47.415Z,19.40
2018-03-06T06:47:15.760Z,34.03
2018-03-06T06:49:44.796Z,22.97
2018-03-06T06:52:13.067Z,40.90
2018-03-06T06:54:41.449Z,35.63
2018-03-06T06:57:12.730Z,30.67
2018-03-06T06:59:41.005Z,14.43
2018-03-06T07:02:09.323Z,31.50
2018-03-06T07:04:37.603Z,30.03
2018-03-06T07:07:05.912Z,33.37
2018-03-06T07:09:35.887Z,26.20
2018-03-06T07:12:04.169Z,36.30
2018-03-06T07:14:32.494Z,14.40
2018-03-06T07:17:00.868Z,36.13
2018-03-06T07:19:32.490Z,38.30
2018-03-06T07:22:00.780Z,38.70
2018-03-06T07:24:29.269Z,28.30
2018-03-06T07:26:57.584Z,42.17
2018-03-06T07:29:25.870Z,13.13
2018-03-06T07:31:54.534Z,21.70
2018-03-06T07:34:23.586Z,26.73
2018-03-06T07:36:51.839Z,30.13
2018-03-06T07:39:21.124Z,38.33
2018-03-06T07:41:50.168Z,16.57
2018-03-06T07:44:18.538Z,18.40
2018-03-06T07:46:49.712Z,20.30
2018-03-06T07:49:17.967Z,23.80
2018-03-06T07:51:46.261Z,29.43
2018-03-06T07:54:14.705Z,23.33
2018-03-06T07:56:43.008Z,26.40
2018-03-06T07:59:12.345Z,10.57
2018-03-06T08:01:41.166Z,23.80
2018-03-06T08:04:10.203Z,28.00
2018-03-06T08:06:38.470Z,28.63
2018-03-06T08:09:06.993Z,32.47
2018-03-06T08:11:38.010Z,27.67
2018-03-06T08:14:06.357Z,37.07
2018-03-06T08:16:34.791Z,37.17
2018-03-06T08:19:03.056Z,35.67
2018-03-06T08:21:31.335Z,34.47
2018-03-06T08:24:03.126Z,27.93
2018-03-06T08:26:32.166Z,32.47
2018-03-06T08:29:00.434Z,37.17
2018-03-06T08:31:29.843Z,32.83
2018-03-06T08:33:58.119Z,37.30
2018-03-06T08:36:27.455Z,37.33
2018-03-06T08:38:56.755Z,35.30
2018-03-06T08:41:25.042Z,35.90
2018-03-06T08:43:54.206Z,32.43
2018-03-06T08:46:24.007Z,31.93
2018-03-06T08:48:53.081Z,32.43
2018-03-06T08:51:21.338Z,38.10
2018-03-06T08:53:50.820Z,40.60
2018-03-06T08:56:19.106Z,31.63
2018-03-06T08:58:48.152Z,34.50
2018-03-06T09:01:17.757Z,34.20
2018-03-06T09:03:46.164Z,30.87
2018-03-06T09:06:14.572Z,32.00
2018-03-06T09:08:43.983Z,26.33
2018-03-06T09:11:12.255Z,25.57
2018-03-06T09:13:42.740Z,28.27
2018-03-06T09:16:11.248Z,32.00
2018-03-06T09:18:39.514Z,30.13
2018-03-06T09:21:07.810Z,36.80
2018-03-06T09:23:37.073Z,32.23
2018-03-06T09:26:06.150Z,34.20
2018-03-06T09:28:34.519Z,27.60
2018-03-06T09:31:02.822Z,29.80
2018-03-06T09:33:31.111Z,31.77
2018-03-06T09:35:59.381Z,25.00
2018-03-06T09:38:28.201Z,34.07
2018-03-06T09:40:57.245Z,28.50
2018-03-06T09:43:25.503Z,34.37
2018-03-06T09:45:53.909Z,34.73
2018-03-06T09:48:22.165Z,33.97
2018-03-06T09:50:52.146Z,34.90
2018-03-06T09:53:20.673Z,37.87
2018-03-06T09:55:48.954Z,43.10
2018-03-06T09:58:17.328Z,38.67
2018-03-06T10:00:45.726Z,35.63
2018-03-06T10:03:16.479Z,36.27
2018-03-06T10:05:44.737Z,36.63
2018-03-06T10:08:13.208Z,34.83
2018-03-06T10:10:41.477Z,37.70
2018-03-06T10:13:09.821Z,36.77
2018-03-06T10:15:40.434Z,51.77
2018-03-06T10:18:09.487Z,54.20
2018-03-06T10:20:37.790Z,54.20
2018-03-06T10:23:06.149Z,59.90
2018-03-06T10:25:34.419Z,60.33
2018-03-06T10:28:03.888Z,63.60
2018-03-06T10:30:33.009Z,56.23
2018-03-06T10:33:01.282Z,56.30
2018-03-06T10:35:29.572Z,52.33
2018-03-06T10:37:57.937Z,56.97
2018-03-06T10:40:27.746Z,49.83
2018-03-06T10:42:56.026Z,48.13
2018-03-06T10:45:24.341Z,47.30
2018-03-06T10:47:52.679Z,48.40
2018-03-06T10:50:20.973Z,46.37
2018-03-06T10:52:50.702Z,56.77
2018-03-06T10:55:19.789Z,45.13
2018-03-06T10:57:48.101Z,46.63
2018-03-06T11:00:16.652Z,42.70
2018-03-06T11:02:44.953Z,48.07
2018-03-06T11:05:15.777Z,61.67
2018-03-06T11:07:44.195Z,64.63
2018-03-06T11:10:13.310Z,53.70
2018-03-06T11:12:41.587Z,49.77
2018-03-06T11:15:10.285Z,47.40
2018-03-06T11:17:40.609Z,46.87
2018-03-06T11:20:08.913Z,52.30
2018-03-06T11:22:38.274Z,50.93
2018-03-06T11:25:06.556Z,61.13
2018-03-06T11:27:34.933Z,59.63
2018-03-06T11:30:04.867Z,43.77
2018-03-06T11:32:33.938Z,55.30
2018-03-06T11:35:02.227Z,55.77
2018-03-06T11:37:30.536Z,40.53
2018-03-06T11:39:59.576Z,48.60
2018-03-06T11:42:30.749Z,55.03
2018-03-06T11:44:59.313Z,46.77
2018-03-06T11:47:27.692Z,54.53
2018-03-06T11:49:55.966Z,56.07
2018-03-06T11:52:24.554Z,63.23
2018-03-06T11:54:52.901Z,53.20
2018-03-06T11:57:21.186Z,54.20
2018-03-06T11:59:50.150Z,56.60
2018-03-06T12:02:19.191Z,60.67
2018-03-06T12:04:47.502Z,63.53
2018-03-06T12:07:19.564Z,67.70
2018-03-06T12:09:48.649Z,55.13
2018-03-06T12:12:16.988Z,60.77
2018-03-06T12:14:46.310Z,54.20
2018-03-06T12:17:14.579Z,69.80
2018-03-06T12:19:43.705Z,71.03
2018-03-06T12:22:12.060Z,58.63
2018-03-06T12:24:40.378Z,68.50
2018-03-06T12:27:09.486Z,59.07
2018-03-06T12:29:38.114Z,59.37
2018-03-06T12:32:11.254Z,60.17
2018-03-06T12:34:40.539Z,68.10
2018-03-06T12:37:09.694Z,56.57
2018-03-06T12:39:37.979Z,72.67
2018-03-06T12:42:06.311Z,61.53
2018-03-06T12:44:35.360Z,56.47
2018-03-06T12:47:03.734Z,64.33
2018-03-06T12:49:33.171Z,64.90
2018-03-06T12:52:02.241Z,60.17
2018-03-06T12:54:30.533Z,65.10
2018-03-06T12:56:59.187Z,62.63
2018-03-06T12:59:27.464Z,72.47
2018-03-06T13:01:55.743Z,77.00
2018-03-06T13:04:24.059Z,63.00
2018-03-06T13:06:53.104Z,71.13
2018-03-06T13:09:24.836Z,63.03
2018-03-06T13:11:53.248Z,62.17
2018-03-06T13:14:21.627Z,57.70
2018-03-06T13:16:49.901Z,61.30
2018-03-06T13:19:18.229Z,69.77
2018-03-06T13:21:47.344Z,65.57
2018-03-06T13:24:15.626Z,60.80
2018-03-06T13:29:20.686Z,58.77
2018-03-06T13:31:49.944Z,61.60
2018-03-06T13:34:18.996Z,73.67
2018-03-06T13:36:47.282Z,64.47
2018-03-06T13:39:15.867Z,67.43
2018-03-06T13:41:44.238Z,61.90
2018-03-06T13:44:14.677Z,65.13
2018-03-06T13:46:44.020Z,67.53
2018-03-06T13:49:13.061Z,58.03
2018-03-06T13:51:42.257Z,64.13
2018-03-06T13:54:10.700Z,52.97
2018-03-06T13:56:41.272Z,60.63
2018-03-06T13:59:09.565Z,61.67
2018-03-06T14:01:37.872Z,75.20
2018-03-06T14:04:06.180Z,64.40
2018-03-06T14:06:34.464Z,62.77
2018-03-06T14:09:05.623Z,66.83
2018-03-06T14:11:34.175Z,69.57
2018-03-06T14:14:02.434Z,60.57
2018-03-06T14:16:30.745Z,61.67
2018-03-06T14:18:59.009Z,67.47
2018-03-06T14:21:28.220Z,61.90
2018-03-06T14:23:56.721Z,69.50
2018-03-06T14:26:24.986Z,61.97
2018-03-06T14:28:53.365Z,66.33
2018-03-06T14:31:21.667Z,62.33
2018-03-06T14:33:51.986Z,61.83
2018-03-06T14:36:20.343Z,52.63
2018-03-06T14:38:49.131Z,60.43
2018-03-06T14:41:19.004Z,62.03
2018-03-06T14:43:47.277Z,62.63
2018-03-06T14:46:16.723Z,56.00
2018-03-06T14:48:45.040Z,53.40
2018-03-06T14:51:14.102Z,57.63
2018-03-06T14:53:43.125Z,50.33
2018-03-06T14:56:12.169Z,55.30
2018-03-06T14:58:40.767Z,59.40
2018-03-06T15:01:09.251Z,66.53
2018-03-06T15:03:37.550Z,55.73
2018-03-06T15:06:05.816Z,51.03
2018-03-06T15:08:34.146Z,60.27
2018-03-06T15:11:03.170Z,52.80
2018-03-06T15:13:32.558Z,59.00
2018-03-06T15:16:01.177Z,48.30
2018-03-06T15:18:30.238Z,51.63
2018-03-06T15:20:58.555Z,48.30
2018-03-06T15:23:29.486Z,64.77
2018-03-06T15:25:57.847Z,46.07
2018-03-06T15:28:26.132Z,62.33
2018-03-06T15:30:54.422Z,44.97
2018-03-06T15:33:22.691Z,52.13
2018-03-06T15:35:51.786Z,47.77
2018-03-06T15:38:20.106Z,60.07
2018-03-06T15:40:48.427Z,55.10
2018-03-06T15:43:16.773Z,62.03
2018-03-06T15:45:45.150Z,63.00
2018-03-06T15:48:15.264Z,77.47
2018-03-06T15:50:44.405Z,72.43
2018-03-06T15:53:12.987Z,68.63
2018-03-06T15:55:41.318Z,67.77
2018-03-06T15:58:09.775Z,63.60
2018-03-06T16:00:40.429Z,65.77
2018-03-06T16:03:08.738Z,70.50
2018-03-06T16:05:37.051Z,67.73
2018-03-06T16:08:05.676Z,66.50
2018-03-06T16:10:33.997Z,73.67
2018-03-06T16:13:03.888Z,72.07
2018-03-06T16:15:32.357Z,71.87
2018-03-06T16:18:01.749Z,68.10
2018-03-06T16:20:30.137Z,66.40
2018-03-06T16:22:58.581Z,81.17
2018-03-06T16:25:29.962Z,66.10
2018-03-06T16:27:58.373Z,63.90
2018-03-06T16:30:26.835Z,69.83
2018-03-06T16:32:55.201Z,77.93
2018-03-06T16:35:23.521Z,77.10
2018-03-06T16:37:53.373Z,73.07
2018-03-06T16:40:22.455Z,104.10
2018-03-06T16:42:51.543Z,71.30
2018-03-06T16:45:20.869Z,79.07
2018-03-06T16:47:49.994Z,86.07
2018-03-06T16:50:22.997Z,76.67
2018-03-06T16:52:51.311Z,67.73
2018-03-06T16:55:19.608Z,70.50
2018-03-06T16:57:48.087Z,71.07
2018-03-06T17:00:16.390Z,71.83
2018-03-06T17:02:45.234Z,69.53
2018-03-06T17:05:14.333Z,67.33
2018-03-06T17:07:43.405Z,74.50
2018-03-06T17:10:11.726Z,64.20
2018-03-06T17:12:40.363Z,65.33
2018-03-06T17:15:10.964Z,61.83
2018-03-06T17:17:39.620Z,65.07
2018-03-06T17:20:08.563Z,64.30
2018-03-06T17:22:36.868Z,70.03
2018-03-06T17:25:05.197Z,68.47
2018-03-06T17:27:36.124Z,57.03
2018-03-06T17:30:04.531Z,67.63
2018-03-06T17:32:32.908Z,66.07
2018-03-06T17:35:01.496Z,65.93
2018-03-06T17:37:29.790Z,85.07
2018-03-06T17:39:59.629Z,76.80
2018-03-06T17:42:28.753Z,70.17
2018-03-06T17:44:57.157Z,71.10
2018-03-06T17:47:25.612Z,85.23
2018-03-06T17:49:53.981Z,64.50
2018-03-06T17:52:24.649Z,70.03
2018-03-06T17:54:53.788Z,77.50
2018-03-06T17:57:23.560Z,81.80
2018-03-06T17:59:53.120Z,72.63
2018-03-06T18:02:22.395Z,82.80
2018-03-06T18:04:51.772Z,89.60
2018-03-06T18:07:20.101Z,95.57
2018-03-06T18:09:48.750Z,86.23
2018-03-06T18:12:17.155Z,99.10
2018-03-06T18:14:45.516Z,98.73
2018-03-06T18:17:15.295Z,104.90
2018-03-06T18:19:44.282Z,87.67
2018-03-06T18:22:12.600Z,88.10
2018-03-06T18:24:41.740Z,85.47
2018-03-06T18:27:10.402Z,81.87
2018-03-06T18:29:38.757Z,88.27
2018-03-06T18:32:08.028Z,84.47
2018-03-06T18:34:37.061Z,75.33
2018-03-06T18:37:06.146Z,84.47
2018-03-06T18:39:35.966Z,76.87
2018-03-06T18:42:18.086Z,69.37
2018-03-06T18:44:46.423Z,88.80
2018-03-06T18:47:14.741Z,90.73
2018-03-06T18:49:56.332Z,91.57
2018-03-06T18:52:24.873Z,93.40
2018-03-06T18:54:53.256Z,78.53
2018-03-06T18:57:21.805Z,102.57
2018-03-06T19:03:23.819Z,70.47
2018-03-06T19:06:03.906Z,80.30
2018-03-06T19:08:32.572Z,85.43
2018-03-06T19:11:01.673Z,85.97
2018-03-06T19:13:30.918Z,77.37
2018-03-06T19:15:59.284Z,81.37
2018-03-06T19:18:27.712Z,78.57
2018-03-06T19:20:56.908Z,88.50
2018-03-06T19:23:26.219Z,78.20
2018-03-06T19:25:54.823Z,66.80
2018-03-06T19:28:23.179Z,81.40
2018-03-06T19:30:51.780Z,89.77
2018-03-06T19:33:20.856Z,90.60
2018-03-06T19:35:49.157Z,76.13
2018-03-06T19:38:18.459Z,72.93
2018-03-06T19:40:47.542Z,76.97
2018-03-06T19:43:16.651Z,72.00
2018-03-06T19:45:45.147Z,75.70
2018-03-06T19:48:13.427Z,75.57
2018-03-06T19:50:43.331Z,86.37
2018-03-06T19:53:11.791Z,90.70
2018-03-06T19:55:40.871Z,93.00
2018-03-06T19:58:09.719Z,79.43
2018-03-06T20:00:38.314Z,84.53
2018-03-06T20:03:07.068Z,90.60
2018-03-06T20:05:35.469Z,91.97
2018-03-06T20:08:04.082Z,86.13
2018-03-06T20:10:32.366Z,91.37
2018-03-06T20:13:00.629Z,87.13
2018-03-06T20:15:29.693Z,79.50
2018-03-06T20:17:58.003Z,83.80
2018-03-06T20:20:26.280Z,79.80
2018-03-06T20:22:56.788Z,92.03
2018-03-06T20:25:30.790Z,86.57
2018-03-06T20:27:59.805Z,79.30
2018-03-06T20:30:33.916Z,80.10
2018-03-06T20:33:08.259Z,91.80
2018-03-06T20:35:37.253Z,79.60
2018-03-06T20:38:15.359Z,85.90
2018-03-06T20:40:43.676Z,96.40
2018-03-06T20:43:11.966Z,95.00
2018-03-06T20:45:46.023Z,92.10
2018-03-06T20:48:14.372Z,88.87
2018-03-06T20:50:42.666Z,87.73
2018-03-06T20:53:16.863Z,94.13
2018-03-06T20:55:45.163Z,97.23
2018-03-06T20:58:13.469Z,94.27
2018-03-06T21:00:45.207Z,93.40
2018-03-06T21:03:13.485Z,96.50
2018-03-06T21:05:41.742Z,84.20
2018-03-06T21:08:10.104Z,86.50
2018-03-06T21:10:38.406Z,103.80
2018-03-06T21:13:06.759Z,92.27
2018-03-06T21:15:35.278Z,97.43
2018-03-06T21:18:04.352Z,98.47
2018-03-06T21:20:32.628Z,92.20
2018-03-06T21:23:04.049Z,104.23
2018-03-06T21:25:33.118Z,81.33
2018-03-06T21:28:01.396Z,84.13
2018-03-06T21:30:29.684Z,111.23
2018-03-06T21:32:57.953Z,82.63
2018-03-06T21:35:26.238Z,94.07
2018-03-06T21:37:55.822Z,86.20
2018-03-06T21:40:24.092Z,89.97
2018-03-06T21:42:53.159Z,86.30
2018-03-06T21:45:22.218Z,95.27
2018-03-06T21:47:50.480Z,96.33
2018-03-06T21:50:20.238Z,103.37
2018-03-06T21:52:48.721Z,92.07
2018-03-06T21:55:18.576Z,95.03
2018-03-06T21:57:46.862Z,90.90
2018-03-06T22:00:15.166Z,89.77
2018-03-06T22:02:46.517Z,89.30
2018-03-06T22:05:14.784Z,96.17
2018-03-06T22:07:43.494Z,94.20
2018-03-06T22:10:13.265Z,101.77
2018-03-06T22:12:41.539Z,113.67
2018-03-06T22:15:13.434Z,102.77
2018-03-06T22:17:41.705Z,94.03
2018-03-06T22:20:09.957Z,96.63
2018-03-06T22:22:38.467Z,111.37
2018-03-06T22:25:06.817Z,90.73
2018-03-06T22:27:35.082Z,99.40
2018-03-06T22:30:03.939Z,89.17
2018-03-06T22:32:32.986Z,94.60
2018-03-06T22:35:01.255Z,80.20
2018-03-06T22:37:29.794Z,88.30
2018-03-06T22:39:59.333Z,92.77
2018-03-06T22:42:27.739Z,93.43
2018-03-06T22:44:56.587Z,93.40
2018-03-06T22:47:25.629Z,123.30
2018-03-06T22:49:53.938Z,92.93
2018-03-06T22:52:25.637Z,94.27
2018-03-06T22:54:53.911Z,96.53
2018-03-06T22:57:22.174Z,103.13
2018-03-06T22:59:50.512Z,100.83
2018-03-06T23:02:18.808Z,106.30
2018-03-06T23:04:48.172Z,109.60
2018-03-06T23:07:16.662Z,94.97
2018-03-06T23:09:46.422Z,76.50
2018-03-06T23:12:14.697Z,96.60
2018-03-06T23:14:43.155Z,99.70
2018-03-06T23:17:14.753Z,84.83
2018-03-06T23:19:43.110Z,97.73
2018-03-06T23:22:11.443Z,118.93
2018-03-06T23:24:40.532Z,125.27
2018-03-06T23:27:09.366Z,86.60
2018-03-06T23:29:38.490Z,86.50
2018-03-06T23:32:06.888Z,89.17
2018-03-06T23:34:35.147Z,107.60
2018-03-06T23:37:03.861Z,120.90
2018-03-06T23:39:32.153Z,97.60
2018-03-06T23:42:01.957Z,95.40
2018-03-06T23:44:31.792Z,99.83
2018-03-06T23:47:00.823Z,95.93
2018-03-06T23:49:29.090Z,115.77
2018-03-06T23:51:57.406Z,115.00
2018-03-06T23:54:28.968Z,92.57
2018-03-06T23:56:57.246Z,92.60
2018-03-06T23:59:25.723Z,138.37
